Time;durP1;ratioP1;P1;durP2;ratioP2;P2;SDS_P1;SDS_P2;PMS_P1;PMS_P2;Temp;Humidity;BMP_temperature;BMP_pressure;BME280_temperature;BME280_humidity;BME280_pressure;Samples;Min_cycle;Max_cycle;Signal;HPM_P1;HPM_P2
2023/06/08 00:01:46;;;;;;;12.93;6.60;;;;;;;;;;10547838;28;20108;-74
2023/06/08 00:06:52;;;;;;;13.10;6.68;;;;;;;;;;10551869;28;20222;-75
2023/06/08 00:11:57;;;;;;;11.18;5.85;;;;;;;;;;10545179;28;20457;-75
2023/06/08 00:17:02;;;;;;;13.82;7.00;;;;;;;;;;10553453;28;20069;-77
2023/06/08 00:22:08;;;;;;;15.75;6.63;;;;;;;;;;10548576;28;20503;-75
2023/06/08 00:27:12;;;;;;;15.45;6.68;;;;;;;;;;10550977;28;20047;-75
2023/06/08 00:32:15;;;;;;;14.80;6.87;;;;;;;;;;10546213;28;20106;-75
2023/06/08 00:37:19;;;;;;;13.93;6.88;;;;;;;;;;10550028;28;20480;-75
2023/06/08 00:42:22;;;;;;;13.48;6.82;;;;;;;;;;10549134;28;20044;-75
2023/06/08 00:47:25;;;;;;;17.45;7.32;;;;;;;;;;10546928;28;20052;-75
2023/06/08 00:52:30;;;;;;;14.57;7.03;;;;;;;;;;10544197;28;20051;-76
2023/06/08 00:57:34;;;;;;;13.50;6.80;;;;;;;;;;10547771;28;20036;-75
2023/06/08 01:02:36;;;;;;;15.40;7.03;;;;;;;;;;10542830;28;20036;-75
2023/06/08 01:07:48;;;;;;;13.17;7.37;;;;;;;;;;10540771;28;20432;-76
2023/06/08 01:12:55;;;;;;;14.38;6.90;;;;;;;;;;10547447;28;20052;-75
2023/06/08 01:17:58;;;;;;;14.23;7.00;;;;;;;;;;10549796;28;20048;-76
2023/06/08 01:23:16;;;;;;;13.23;6.85;;;;;;;;;;10549999;28;20056;-74
2023/06/08 01:28:20;;;;;;;13.77;6.72;;;;;;;;;;10551025;28;20044;-76
2023/06/08 01:33:25;;;;;;;14.27;7.75;;;;;;;;;;10544109;28;20041;-74
2023/06/08 01:38:30;;;;;;;14.40;7.15;;;;;;;;;;10550274;28;20040;-75
2023/06/08 01:43:36;;;;;;;13.60;7.60;;;;;;;;;;10553204;28;20040;-74
2023/06/08 01:48:39;;;;;;;15.32;6.95;;;;;;;;;;10554053;28;20629;-74
2023/06/08 01:53:42;;;;;;;12.60;7.07;;;;;;;;;;10553151;28;20072;-74
2023/06/08 01:58:46;;;;;;;13.75;7.53;;;;;;;;;;10557627;28;20054;-74
2023/06/08 02:03:49;;;;;;;16.50;7.63;;;;;;;;;;10556130;28;21736;-76
2023/06/08 02:08:52;;;;;;;17.93;8.03;;;;;;;;;;10540039;28;20064;-75
2023/06/08 02:13:56;;;;;;;15.63;8.37;;;;;;;;;;10556028;28;20063;-75
2023/06/08 02:19:00;;;;;;;13.18;7.47;;;;;;;;;;10556051;28;20108;-75
2023/06/08 02:24:03;;;;;;;15.43;7.93;;;;;;;;;;10558885;28;20285;-75
2023/06/08 02:29:07;;;;;;;16.20;8.00;;;;;;;;;;10556310;28;20032;-75
2023/06/08 02:34:10;;;;;;;15.10;7.50;;;;;;;;;;10558415;28;20044;-75
2023/06/08 02:39:14;;;;;;;13.40;7.90;;;;;;;;;;10554981;28;20115;-75
2023/06/08 02:44:24;;;;;;;16.55;7.57;;;;;;;;;;10566896;28;20181;-75
2023/06/08 02:49:27;;;;;;;15.07;7.75;;;;;;;;;;10552686;28;20459;-75
2023/06/08 02:54:29;;;;;;;18.30;8.30;;;;;;;;;;10551669;28;21406;-75
2023/06/08 02:59:33;;;;;;;17.67;8.35;;;;;;;;;;10552341;28;20134;-76
2023/06/08 03:04:37;;;;;;;16.33;8.00;;;;;;;;;;10549619;28;20032;-76
2023/06/08 03:09:39;;;;;;;;;;;;;;;;;;10548473;28;20062;-75
2023/06/08 03:14:44;;;;;;;17.75;7.95;;;;;;;;;;10553448;28;20125;-75
2023/06/08 03:19:47;;;;;;;17.77;8.15;;;;;;;;;;10554741;28;20099;-75
2023/06/08 03:24:50;;;;;;;12.33;7.10;;;;;;;;;;10554025;28;20103;-75
2023/06/08 03:29:54;;;;;;;14.77;8.03;;;;;;;;;;10556072;28;20309;-75
2023/06/08 03:34:59;;;;;;;17.95;8.30;;;;;;;;;;10548491;28;20050;-75
2023/06/08 03:40:06;;;;;;;14.95;7.80;;;;;;;;;;10551146;28;20181;-75
2023/06/08 03:45:10;;;;;;;14.48;7.45;;;;;;;;;;10552802;28;20484;-75
2023/06/08 03:50:14;;;;;;;12.52;7.32;;;;;;;;;;10554360;28;20071;-75
2023/06/08 03:55:18;;;;;;;13.07;7.10;;;;;;;;;;10551013;28;20092;-75
2023/06/08 04:00:22;;;;;;;11.30;6.28;;;;;;;;;;10553162;28;20048;-75
2023/06/08 04:05:24;;;;;;;;;;;;;;;;;;10524557;28;20046;-74
2023/06/08 04:10:27;;;;;;;15.30;7.13;;;;;;;;;;10549091;28;20691;-74
2023/06/08 04:15:31;;;;;;;12.32;6.82;;;;;;;;;;10549210;28;20126;-76
2023/06/08 04:20:33;;;;;;;14.48;7.15;;;;;;;;;;10547120;28;20104;-77
2023/06/08 04:25:36;;;;;;;11.95;6.85;;;;;;;;;;10550943;28;20063;-75
2023/06/08 04:30:40;;;;;;;13.10;7.03;;;;;;;;;;10549198;28;20116;-75
2023/06/08 04:35:43;;;;;;;15.45;7.00;;;;;;;;;;10550941;28;20314;-75
2023/06/08 04:40:49;;;;;;;14.17;6.97;;;;;;;;;;10549784;28;20044;-75
2023/06/08 04:45:57;;;;;;;11.38;6.40;;;;;;;;;;10545172;28;20522;-76
2023/06/08 04:51:01;;;;;;;13.32;6.25;;;;;;;;;;10555466;28;20151;-75
2023/06/08 04:56:05;;;;;;;11.45;6.40;;;;;;;;;;10550833;28;20048;-75
2023/06/08 05:01:09;;;;;;;11.52;6.75;;;;;;;;;;10551879;28;20113;-75
2023/06/08 05:06:12;;;;;;;11.95;7.18;;;;;;;;;;10548749;28;20242;-74
2023/06/08 05:11:15;;;;;;;11.27;6.07;;;;;;;;;;10549167;28;20127;-74
2023/06/08 05:16:19;;;;;;;14.35;6.28;;;;;;;;;;10554033;28;20047;-75
2023/06/08 05:21:22;;;;;;;11.48;6.15;;;;;;;;;;10556991;28;20043;-75
2023/06/08 05:26:25;;;;;;;10.95;6.03;;;;;;;;;;10553111;28;20047;-75
2023/06/08 05:31:29;;;;;;;8.83;4.10;;;;;;;;;;10573008;27;20051;-76
2023/06/08 05:36:32;;;;;;;9.50;5.28;;;;;;;;;;10552500;28;20036;-76
2023/06/08 05:41:34;;;;;;;10.97;5.53;;;;;;;;;;10549300;28;20160;-76
2023/06/08 05:46:38;;;;;;;11.60;5.80;;;;;;;;;;10565303;27;20040;-75
2023/06/08 05:51:41;;;;;;;10.05;5.47;;;;;;;;;;10555194;28;20047;-76
2023/06/08 05:56:44;;;;;;;9.88;5.68;;;;;;;;;;10556537;28;20037;-79
2023/06/08 06:01:48;;;;;;;9.77;5.40;;;;;;;;;;10560107;28;20072;-74
2023/06/08 06:06:51;;;;;;;9.57;5.25;;;;;;;;;;10554705;28;20451;-75
2023/06/08 06:11:54;;;;;;;10.30;5.87;;;;;;;;;;10549927;28;20036;-75
2023/06/08 06:16:59;;;;;;;11.80;6.43;;;;;;;;;;10552819;28;20028;-76
2023/06/08 06:22:08;;;;;;;4.07;2.45;;;;;;;;;;10548884;28;20069;-75
2023/06/08 06:27:19;;;;;;;11.88;5.63;;;;;;;;;;10557568;28;20051;-75
2023/06/08 06:32:23;;;;;;;9.75;5.47;;;;;;;;;;10544955;28;20036;-75
2023/06/08 06:37:34;;;;;;;8.50;4.97;;;;;;;;;;10550088;28;20033;-76
2023/06/08 06:42:37;;;;;;;8.05;4.80;;;;;;;;;;10559610;28;20553;-75
2023/06/08 06:47:41;;;;;;;8.55;5.13;;;;;;;;;;10568632;28;20044;-77
2023/06/08 06:52:44;;;;;;;7.85;4.68;;;;;;;;;;10577156;28;20100;-75
2023/06/08 06:57:48;;;;;;;9.07;4.43;;;;;;;;;;10572692;28;20039;-74
2023/06/08 07:02:53;;;;;;;9.70;5.00;;;;;;;;;;10556043;28;20413;-75
2023/06/08 07:07:56;;;;;;;8.35;4.93;;;;;;;;;;10572661;28;20049;-75
2023/06/08 07:12:59;;;;;;;10.25;5.70;;;;;;;;;;10563383;28;20039;-74
2023/06/08 07:18:03;;;;;;;9.52;6.00;;;;;;;;;;10575103;28;20504;-76
2023/06/08 07:23:06;;;;;;;9.93;5.30;;;;;;;;;;10568601;28;20456;-76
2023/06/08 07:28:29;;;;;;;9.20;5.45;;;;;;;;;;10556485;28;20044;-75
2023/06/08 07:33:33;;;;;;;8.27;5.47;;;;;;;;;;10543280;28;20036;-75
2023/06/08 07:38:36;;;;;;;9.48;5.82;;;;;;;;;;10560776;28;20032;-75
2023/06/08 07:43:40;;;;;;;10.18;5.50;;;;;;;;;;10561933;28;20074;-75
2023/06/08 07:48:45;;;;;;;10.30;6.32;;;;;;;;;;10543124;28;20056;-75
2023/06/08 07:53:49;;;;;;;7.90;4.97;;;;;;;;;;10569104;28;20044;-74
2023/06/08 07:58:54;;;;;;;10.88;6.20;;;;;;;;;;10573493;28;20047;-75
2023/06/08 08:03:58;;;;;;;8.85;6.07;;;;;;;;;;10579587;28;20072;-76
2023/06/08 08:09:01;;;;;;;7.57;6.10;;;;;;;;;;10567666;28;20123;-73
2023/06/08 08:14:09;;;;;;;9.70;6.07;;;;;;;;;;10586887;28;20058;-74
2023/06/08 08:19:15;;;;;;;9.73;6.65;;;;;;;;;;10577484;28;20040;-75
2023/06/08 08:24:18;;;;;;;7.28;6.20;;;;;;;;;;10576024;28;20043;-74
2023/06/08 08:29:22;;;;;;;8.55;6.05;;;;;;;;;;10566907;28;20053;-74
2023/06/08 08:34:26;;;;;;;12.25;6.57;;;;;;;;;;10561520;28;20052;-75
2023/06/08 08:39:32;;;;;;;6.63;5.93;;;;;;;;;;10566220;28;20044;-75
2023/06/08 08:44:35;;;;;;;8.82;7.75;;;;;;;;;;10575657;28;20134;-75
2023/06/08 08:49:43;;;;;;;10.55;6.57;;;;;;;;;;10566022;28;20040;-75
2023/06/08 08:54:55;;;;;;;7.68;6.35;;;;;;;;;;10569804;28;20095;-75
2023/06/08 09:00:00;;;;;;;7.43;6.72;;;;;;;;;;10574568;28;20097;-76
2023/06/08 09:05:05;;;;;;;7.30;6.60;;;;;;;;;;10569671;28;20059;-75
2023/06/08 09:10:15;;;;;;;6.28;5.68;;;;;;;;;;10584199;28;20042;-76
2023/06/08 09:15:26;;;;;;;6.97;6.28;;;;;;;;;;10551223;28;20051;-75
2023/06/08 09:20:31;;;;;;;5.82;5.03;;;;;;;;;;10540920;28;20040;-75
2023/06/08 09:25:36;;;;;;;9.38;5.80;;;;;;;;;;10565913;28;20074;-75
2023/06/08 09:30:39;;;;;;;6.35;5.75;;;;;;;;;;10564078;28;20048;-75
2023/06/08 09:35:43;;;;;;;5.70;5.20;;;;;;;;;;10557580;28;20040;-74
2023/06/08 09:40:47;;;;;;;5.90;5.20;;;;;;;;;;10566641;28;20104;-75
2023/06/08 09:45:50;;;;;;;6.60;5.82;;;;;;;;;;10566890;28;20055;-75
2023/06/08 09:50:59;;;;;;;4.85;4.45;;;;;;;;;;10574571;28;20490;-76
2023/06/08 09:56:05;;;;;;;5.45;4.95;;;;;;;;;;10581272;28;20050;-75
2023/06/08 10:01:10;;;;;;;4.82;4.38;;;;;;;;;;10568928;28;20143;-75
2023/06/08 10:06:15;;;;;;;6.82;4.65;;;;;;;;;;10573508;28;20051;-76
2023/06/08 10:11:18;;;;;;;4.85;4.45;;;;;;;;;;10582976;28;20151;-76
2023/06/08 10:16:22;;;;;;;4.43;4.03;;;;;;;;;;10590320;28;20049;-76
2023/06/08 10:21:27;;;;;;;5.38;4.88;;;;;;;;;;10576132;28;20105;-77
2023/06/08 10:26:30;;;;;;;4.75;4.35;;;;;;;;;;10581160;28;20035;-76
2023/06/08 10:31:36;;;;;;;5.82;4.80;;;;;;;;;;10568692;28;20155;-76
2023/06/08 10:36:42;;;;;;;5.50;4.78;;;;;;;;;;10564283;28;20044;-76
2023/06/08 10:41:46;;;;;;;6.72;5.20;;;;;;;;;;10563374;28;20050;-76
2023/06/08 10:46:55;;;;;;;5.03;4.63;;;;;;;;;;10563275;28;20090;-76
2023/06/08 10:52:00;;;;;;;4.70;4.30;;;;;;;;;;10580292;28;20127;-77
2023/06/08 10:57:05;;;;;;;5.57;4.45;;;;;;;;;;10579847;28;20036;-75
2023/06/08 11:02:11;;;;;;;4.75;4.25;;;;;;;;;;10563667;28;20064;-76
2023/06/08 11:07:15;;;;;;;4.72;4.32;;;;;;;;;;10572001;28;20044;-76
2023/06/08 11:12:22;;;;;;;4.47;4.03;;;;;;;;;;10553190;28;20180;-75
2023/06/08 11:17:26;;;;;;;4.78;4.20;;;;;;;;;;10581567;28;20032;-75
2023/06/08 11:22:30;;;;;;;4.53;4.13;;;;;;;;;;10562386;28;20101;-74
2023/06/08 11:27:32;;;;;;;4.05;3.65;;;;;;;;;;10570254;28;20040;-76
2023/06/08 11:32:38;;;;;;;4.68;4.25;;;;;;;;;;10575728;28;20048;-75
2023/06/08 11:37:43;;;;;;;4.65;3.97;;;;;;;;;;10571291;28;20036;-75
2023/06/08 11:42:46;;;;;;;4.28;3.67;;;;;;;;;;10566970;28;20044;-75
2023/06/08 11:47:52;;;;;;;4.30;3.90;;;;;;;;;;10562167;28;20032;-74
2023/06/08 11:53:22;;;;;;;4.88;4.13;;;;;;;;;;10562662;28;20255;-75
2023/06/08 11:58:28;;;;;;;4.57;3.78;;;;;;;;;;10566146;28;20047;-75
2023/06/08 12:03:33;;;;;;;4.25;3.78;;;;;;;;;;10578531;28;20075;-76
2023/06/08 12:08:39;;;;;;;3.75;3.42;;;;;;;;;;10577168;28;20090;-74
2023/06/08 12:13:42;;;;;;;4.25;3.78;;;;;;;;;;10559574;28;20068;-74
2023/06/08 12:18:45;;;;;;;3.58;3.22;;;;;;;;;;10563729;28;20312;-75
2023/06/08 12:23:50;;;;;;;3.97;3.58;;;;;;;;;;10558843;28;20109;-75
2023/06/08 12:28:54;;;;;;;5.00;3.90;;;;;;;;;;10566002;28;20027;-74
2023/06/08 12:33:58;;;;;;;4.03;3.40;;;;;;;;;;10575043;28;20044;-74
2023/06/08 12:39:03;;;;;;;6.32;3.70;;;;;;;;;;10560297;28;20036;-75
2023/06/08 12:44:05;;;;;;;5.22;3.72;;;;;;;;;;10554842;28;20040;-74
2023/06/08 12:49:08;;;;;;;5.10;3.60;;;;;;;;;;10567803;28;20043;-75
2023/06/08 12:54:12;;;;;;;4.90;3.63;;;;;;;;;;10564972;28;20104;-75
2023/06/08 12:59:16;;;;;;;5.40;3.33;;;;;;;;;;10576393;28;20252;-76
2023/06/08 13:04:19;;;;;;;5.30;3.67;;;;;;;;;;10566975;28;20044;-75
2023/06/08 13:09:24;;;;;;;5.85;3.83;;;;;;;;;;10553884;28;20063;-76
2023/06/08 13:14:29;;;;;;;6.55;3.67;;;;;;;;;;10557494;28;20059;-76
2023/06/08 13:19:32;;;;;;;4.88;3.55;;;;;;;;;;10575559;28;20048;-75
2023/06/08 13:24:36;;;;;;;12.55;3.95;;;;;;;;;;10568457;28;20072;-74
2023/06/08 13:29:40;;;;;;;7.68;4.10;;;;;;;;;;10569962;28;20103;-75
2023/06/08 13:34:43;;;;;;;10.77;4.75;;;;;;;;;;10566539;28;20122;-76
2023/06/08 13:39:48;;;;;;;6.97;3.88;;;;;;;;;;10571386;28;20504;-74
2023/06/08 13:44:51;;;;;;;7.18;4.20;;;;;;;;;;10572392;28;20064;-73
2023/06/08 13:49:54;;;;;;;9.25;3.88;;;;;;;;;;10566487;28;20063;-72
2023/06/08 13:54:59;;;;;;;8.43;3.97;;;;;;;;;;10565049;28;20051;-72
2023/06/08 14:00:02;;;;;;;8.63;4.07;;;;;;;;;;10570154;28;20257;-72
2023/06/08 14:05:07;;;;;;;10.55;4.53;;;;;;;;;;10576681;28;20036;-73
2023/06/08 14:10:13;;;;;;;12.23;3.97;;;;;;;;;;10571401;28;20035;-74
2023/06/08 14:15:17;;;;;;;10.40;4.15;;;;;;;;;;10572518;28;20535;-75
2023/06/08 14:20:20;;;;;;;3.45;2.00;;;;;;;;;;10555845;28;20133;-73
2023/06/08 14:25:24;;;;;;;8.00;3.67;;;;;;;;;;10573983;28;20082;-74
2023/06/08 14:30:27;;;;;;;6.38;3.45;;;;;;;;;;10573225;28;20041;-73
2023/06/08 14:35:30;;;;;;;9.82;4.03;;;;;;;;;;10563285;28;20467;-74
2023/06/08 14:40:34;;;;;;;8.88;4.55;;;;;;;;;;10565325;28;20087;-74
2023/06/08 14:45:37;;;;;;;5.85;3.40;;;;;;;;;;10571489;28;20075;-75
2023/06/08 14:50:40;;;;;;;7.50;3.65;;;;;;;;;;10574550;28;20404;-74
2023/06/08 14:55:44;;;;;;;7.15;3.67;;;;;;;;;;10577376;28;20093;-74
2023/06/08 15:00:47;;;;;;;6.90;3.42;;;;;;;;;;10566126;28;20597;-74
2023/06/08 15:05:49;;;;;;;;;;;;;;;;;;10572455;28;20052;-74
2023/06/08 15:10:54;;;;;;;5.10;3.25;;;;;;;;;;10561835;28;19970;-75
2023/06/08 15:15:58;;;;;;;5.43;3.15;;;;;;;;;;10574724;28;20092;-75
2023/06/08 15:21:03;;;;;;;5.63;3.58;;;;;;;;;;10570031;28;20047;-75
2023/06/08 15:26:07;;;;;;;5.25;3.65;;;;;;;;;;10583764;28;20035;-75
2023/06/08 15:31:12;;;;;;;6.20;3.53;;;;;;;;;;10561564;28;20040;-75
2023/06/08 15:36:15;;;;;;;7.85;4.03;;;;;;;;;;10567511;28;20043;-75
2023/06/08 15:41:20;;;;;;;6.10;4.40;;;;;;;;;;10570532;28;20040;-74
2023/06/08 15:46:23;;;;;;;5.97;3.88;;;;;;;;;;10562062;28;20051;-75
2023/06/08 15:51:27;;;;;;;8.40;4.40;;;;;;;;;;10562284;28;20389;-75
2023/06/08 15:56:31;;;;;;;7.53;4.45;;;;;;;;;;10583958;28;20119;-74
2023/06/08 16:01:34;;;;;;;5.72;3.78;;;;;;;;;;10560146;28;20047;-75
2023/06/08 16:06:40;;;;;;;6.55;4.20;;;;;;;;;;10562964;28;20040;-74
2023/06/08 16:11:44;;;;;;;6.43;3.65;;;;;;;;;;10576361;28;20233;-76
2023/06/08 16:16:47;;;;;;;5.47;2.88;;;;;;;;;;10562180;28;20040;-75
2023/06/08 16:21:50;;;;;;;5.90;3.65;;;;;;;;;;10570221;28;20212;-74
2023/06/08 16:26:53;;;;;;;;;;;;;;;;;;10578795;28;20091;-75
2023/06/08 16:31:57;;;;;;;6.75;3.58;;;;;;;;;;10582046;28;20270;-76
2023/06/08 16:37:00;;;;;;;6.38;3.55;;;;;;;;;;10577825;28;20048;-76
2023/06/08 16:42:04;;;;;;;6.25;3.65;;;;;;;;;;10565664;28;20039;-75
2023/06/08 16:47:10;;;;;;;3.90;2.95;;;;;;;;;;10569227;28;20108;-75
2023/06/08 16:52:13;;;;;;;4.93;3.55;;;;;;;;;;10577474;28;20122;-75
2023/06/08 16:57:17;;;;;;;6.10;3.80;;;;;;;;;;10564097;28;20074;-75
2023/06/08 17:02:21;;;;;;;6.95;4.13;;;;;;;;;;10566461;28;20095;-76
2023/06/08 17:07:25;;;;;;;5.65;3.58;;;;;;;;;;10559237;28;20044;-76
2023/06/08 17:12:28;;;;;;;5.60;3.53;;;;;;;;;;10559005;28;20048;-74
2023/06/08 17:17:30;;;;;;;;;;;;;;;;;;10557893;28;20048;-76
2023/06/08 17:22:34;;;;;;;6.53;4.35;;;;;;;;;;10566308;28;19920;-74
2023/06/08 17:27:38;;;;;;;8.38;4.30;;;;;;;;;;10582286;28;20047;-74
2023/06/08 17:32:41;;;;;;;;;;;;;;;;;;10574275;28;20074;-75
2023/06/08 17:37:45;;;;;;;7.13;4.07;;;;;;;;;;10563939;28;19974;-76
2023/06/08 17:42:48;;;;;;;6.60;3.97;;;;;;;;;;10573096;28;20394;-77
2023/06/08 17:47:51;;;;;;;7.32;3.95;;;;;;;;;;10558113;28;20119;-75
2023/06/08 17:52:54;;;;;;;;;;;;;;;;;;10558236;28;20267;-74
2023/06/08 17:57:59;;;;;;;6.70;3.80;;;;;;;;;;10562907;28;19920;-74
2023/06/08 18:03:02;;;;;;;6.38;3.88;;;;;;;;;;10570838;28;20310;-74
2023/06/08 18:08:05;;;;;;;8.15;4.15;;;;;;;;;;10566464;28;20036;-76
2023/06/08 18:13:10;;;;;;;8.40;4.03;;;;;;;;;;10573965;28;20063;-75
2023/06/08 18:18:13;;;;;;;8.13;3.70;;;;;;;;;;10556439;28;20123;-74
2023/06/08 18:23:16;;;;;;;;;;;;;;;;;;10570503;28;20087;-74
2023/06/08 18:28:20;;;;;;;10.00;2.90;;;;;;;;;;10572510;28;19920;-75
2023/06/08 18:33:23;;;;;;;6.90;3.53;;;;;;;;;;10584176;28;20507;-75
2023/06/08 18:38:26;;;;;;;7.20;3.90;;;;;;;;;;10559708;28;20044;-75
2023/06/08 18:43:31;;;;;;;6.32;3.90;;;;;;;;;;10570267;28;20101;-76
2023/06/08 18:48:33;;;;;;;9.32;4.22;;;;;;;;;;10581067;28;20040;-75
2023/06/08 18:53:36;;;;;;;6.85;4.05;;;;;;;;;;10571335;28;20044;-75
2023/06/08 18:58:39;;;;;;;;;;;;;;;;;;10579142;28;20051;-74
2023/06/08 19:03:44;;;;;;;10.10;4.47;;;;;;;;;;10575237;28;19927;-75
2023/06/08 19:08:47;;;;;;;6.97;3.75;;;;;;;;;;10569494;28;20036;-73
2023/06/08 19:13:50;;;;;;;13.00;6.33;;;;;;;;;;10570838;28;20115;-74
2023/06/08 19:18:55;;;;;;;8.32;4.32;;;;;;;;;;10563725;28;20096;-74
2023/06/08 19:23:57;;;;;;;7.57;4.50;;;;;;;;;;10572390;28;20036;-74
2023/06/08 19:29:01;;;;;;;8.47;4.40;;;;;;;;;;10571271;28;20667;-75
2023/06/08 19:34:03;;;;;;;;;;;;;;;;;;10584619;28;20374;-76
2023/06/08 19:39:07;;;;;;;7.47;4.05;;;;;;;;;;10570069;28;19984;-75
2023/06/08 19:44:10;;;;;;;7.15;4.32;;;;;;;;;;10574205;28;20048;-76
2023/06/08 19:49:13;;;;;;;8.60;4.35;;;;;;;;;;10578031;28;20035;-75
2023/06/08 19:54:18;;;;;;;9.73;4.75;;;;;;;;;;10571768;28;20059;-73
2023/06/08 19:59:25;;;;;;;11.30;4.60;;;;;;;;;;10577595;28;21194;-74
2023/06/08 20:04:27;;;;;;;6.88;3.90;;;;;;;;;;10579067;28;20044;-75
2023/06/08 20:09:33;;;;;;;5.80;4.03;;;;;;;;;;10570132;28;20109;-75
2023/06/08 20:14:36;;;;;;;5.07;3.08;;;;;;;;;;10560494;28;20097;-75
2023/06/08 20:19:39;;;;;;;8.18;4.20;;;;;;;;;;10569603;28;20126;-77
2023/06/08 20:24:43;;;;;;;7.55;3.00;;;;;;;;;;10569709;28;20071;-77
2023/06/08 20:29:47;;;;;;;6.55;2.50;;;;;;;;;;10565725;28;20505;-76
2023/06/08 20:34:50;;;;;;;4.85;2.45;;;;;;;;;;10564748;28;20388;-76
2023/06/08 20:39:54;;;;;;;3.00;1.90;;;;;;;;;;10565866;28;20036;-76
2023/06/08 20:44:57;;;;;;;5.78;2.35;;;;;;;;;;10571640;28;20646;-76
2023/06/08 20:50:00;;;;;;;3.33;1.75;;;;;;;;;;10582319;28;20055;-75
2023/06/08 20:55:06;;;;;;;3.70;1.95;;;;;;;;;;10560143;28;20067;-77
2023/06/08 21:00:10;;;;;;;2.88;1.60;;;;;;;;;;10569383;28;20082;-76
2023/06/08 21:05:14;;;;;;;3.25;1.90;;;;;;;;;;10561813;28;20058;-75
2023/06/08 21:10:19;;;;;;;2.28;1.70;;;;;;;;;;10567697;28;20068;-74
2023/06/08 21:15:21;;;;;;;2.50;1.60;;;;;;;;;;10565464;28;20054;-76
2023/06/08 21:20:24;;;;;;;5.30;2.63;;;;;;;;;;10557903;28;20135;-76
2023/06/08 21:25:29;;;;;;;4.45;1.92;;;;;;;;;;10567025;28;20115;-77
2023/06/08 21:30:31;;;;;;;3.28;1.77;;;;;;;;;;10564495;28;20071;-77
2023/06/08 21:35:34;;;;;;;4.40;1.80;;;;;;;;;;10566940;28;20040;-76
2023/06/08 21:40:39;;;;;;;3.53;1.73;;;;;;;;;;10565078;28;20067;-77
2023/06/08 21:45:41;;;;;;;3.25;1.70;;;;;;;;;;10572380;28;20132;-76
2023/06/08 21:50:44;;;;;;;3.33;1.60;;;;;;;;;;10570600;28;20056;-77
2023/06/08 21:55:48;;;;;;;3.47;1.60;;;;;;;;;;10564833;28;20301;-76
2023/06/08 22:00:51;;;;;;;3.08;1.75;;;;;;;;;;10579221;28;20085;-75
2023/06/08 22:05:55;;;;;;;3.38;1.70;;;;;;;;;;10584957;28;20039;-76
2023/06/08 22:10:59;;;;;;;3.95;1.35;;;;;;;;;;10570455;28;20031;-75
2023/06/08 22:16:02;;;;;;;4.60;1.58;;;;;;;;;;10592248;28;20136;-74
2023/06/08 22:21:05;;;;;;;3.72;1.70;;;;;;;;;;10564774;28;20036;-75
2023/06/08 22:26:12;;;;;;;3.00;1.70;;;;;;;;;;10578711;28;20047;-75
2023/06/08 22:31:15;;;;;;;3.33;1.55;;;;;;;;;;10573655;28;20044;-75
2023/06/08 22:36:19;;;;;;;4.50;2.08;;;;;;;;;;10568147;28;20098;-74
2023/06/08 22:41:23;;;;;;;2.80;1.27;;;;;;;;;;10586070;28;20044;-75
2023/06/08 22:46:26;;;;;;;7.97;2.53;;;;;;;;;;10571133;28;20040;-74
2023/06/08 22:51:29;;;;;;;3.63;2.20;;;;;;;;;;10573901;28;20036;-76
2023/06/08 22:56:33;;;;;;;5.30;2.33;;;;;;;;;;10593130;28;20063;-76
2023/06/08 23:01:36;;;;;;;1.75;1.13;;;;;;;;;;10561788;28;20036;-76
2023/06/08 23:06:39;;;;;;;5.25;2.10;;;;;;;;;;10580289;28;20040;-75
2023/06/08 23:11:44;;;;;;;2.78;1.40;;;;;;;;;;10587796;28;20073;-75
2023/06/08 23:16:48;;;;;;;1.92;1.27;;;;;;;;;;10600820;28;20069;-75
2023/06/08 23:21:53;;;;;;;3.60;1.40;;;;;;;;;;10589854;28;20028;-75
2023/06/08 23:26:57;;;;;;;6.00;2.40;;;;;;;;;;10579342;28;20042;-74
2023/06/08 23:31:59;;;;;;;4.85;2.72;;;;;;;;;;10553701;28;20039;-73
2023/06/08 23:37:02;;;;;;;6.57;3.40;;;;;;;;;;10574300;28;20062;-74
2023/06/08 23:42:08;;;;;;;4.17;2.23;;;;;;;;;;10581972;28;20028;-74
2023/06/08 23:47:11;;;;;;;6.75;3.30;;;;;;;;;;10578932;28;20044;-74
2023/06/08 23:52:13;;;;;;;4.53;2.50;;;;;;;;;;10570172;28;20536;-74
2023/06/08 23:57:17;;;;;;;6.95;3.60;;;;;;;;;;10562148;28;20071;-73
